sensor_id;sensor_type;location;lat;lon;timestamp;P1;durP1;ratioP1;P2;durP2;ratioP2
7761;SDS011;3925;48.636;9.516;2023-03-20T00:00:27;7.03;;;4.37;;
7761;SDS011;3925;48.636;9.516;2023-03-20T00:02:56;4.63;;;4.23;;
7761;SDS011;3925;48.636;9.516;2023-03-20T00:05:23;5.10;;;4.40;;
7761;SDS011;3925;48.636;9.516;2023-03-20T00:07:52;4.87;;;4.47;;
7761;SDS011;3925;48.636;9.516;2023-03-20T00:10:19;4.27;;;3.87;;
7761;SDS011;3925;48.636;9.516;2023-03-20T00:12:47;5.10;;;4.00;;
7761;SDS011;3925;48.636;9.516;2023-03-20T00:15:26;4.07;;;3.77;;
7761;SDS011;3925;48.636;9.516;2023-03-20T00:17:55;3.50;;;3.20;;
7761;SDS011;3925;48.636;9.516;2023-03-20T00:20:23;4.03;;;3.33;;
7761;SDS011;3925;48.636;9.516;2023-03-20T00:22:50;3.70;;;3.40;;
7761;SDS011;3925;48.636;9.516;2023-03-20T00:25:19;3.00;;;2.80;;
7761;SDS011;3925;48.636;9.516;2023-03-20T00:27:48;3.57;;;3.27;;
7761;SDS011;3925;48.636;9.516;2023-03-20T00:30:17;7.23;;;6.10;;
7761;SDS011;3925;48.636;9.516;2023-03-20T00:32:48;6.50;;;5.90;;
7761;SDS011;3925;48.636;9.516;2023-03-20T00:35:20;5.70;;;5.20;;
7761;SDS011;3925;48.636;9.516;2023-03-20T00:37:50;6.70;;;5.95;;
7761;SDS011;3925;48.636;9.516;2023-03-20T00:40:17;5.57;;;5.07;;
7761;SDS011;3925;48.636;9.516;2023-03-20T00:42:45;6.50;;;5.80;;
7761;SDS011;3925;48.636;9.516;2023-03-20T00:45:15;5.60;;;5.10;;
7761;SDS011;3925;48.636;9.516;2023-03-20T00:47:47;5.80;;;5.03;;
7761;SDS011;3925;48.636;9.516;2023-03-20T00:50:16;5.50;;;5.00;;
7761;SDS011;3925;48.636;9.516;2023-03-20T00:52:45;5.15;;;4.18;;
7761;SDS011;3925;48.636;9.516;2023-03-20T00:55:11;4.73;;;3.63;;
7761;SDS011;3925;48.636;9.516;2023-03-20T00:57:40;3.50;;;3.13;;
7761;SDS011;3925;48.636;9.516;2023-03-20T01:00:16;3.93;;;3.53;;
7761;SDS011;3925;48.636;9.516;2023-03-20T01:02:52;3.33;;;3.03;;
7761;SDS011;3925;48.636;9.516;2023-03-20T01:05:20;3.00;;;2.80;;
7761;SDS011;3925;48.636;9.516;2023-03-20T01:07:47;4.57;;;3.80;;
7761;SDS011;3925;48.636;9.516;2023-03-20T01:10:14;4.20;;;3.80;;
7761;SDS011;3925;48.636;9.516;2023-03-20T01:12:42;3.00;;;2.80;;
7761;SDS011;3925;48.636;9.516;2023-03-20T01:15:14;2.43;;;2.23;;
7761;SDS011;3925;48.636;9.516;2023-03-20T01:17:44;2.77;;;2.57;;
7761;SDS011;3925;48.636;9.516;2023-03-20T01:22:47;2.77;;;2.57;;
7761;SDS011;3925;48.636;9.516;2023-03-20T01:25:14;2.20;;;2.00;;
7761;SDS011;3925;48.636;9.516;2023-03-20T01:27:42;2.30;;;2.17;;
7761;SDS011;3925;48.636;9.516;2023-03-20T01:30:16;1.97;;;1.87;;
7761;SDS011;3925;48.636;9.516;2023-03-20T01:32:45;2.23;;;2.13;;
7761;SDS011;3925;48.636;9.516;2023-03-20T01:35:13;2.17;;;1.87;;
7761;SDS011;3925;48.636;9.516;2023-03-20T01:37:42;2.03;;;1.87;;
7761;SDS011;3925;48.636;9.516;2023-03-20T01:40:12;2.13;;;1.60;;
7761;SDS011;3925;48.636;9.516;2023-03-20T01:42:47;1.63;;;1.53;;
7761;SDS011;3925;48.636;9.516;2023-03-20T01:45:15;3.50;;;1.40;;
7761;SDS011;3925;48.636;9.516;2023-03-20T01:47:44;1.50;;;1.40;;
7761;SDS011;3925;48.636;9.516;2023-03-20T01:53:03;1.43;;;1.33;;
7761;SDS011;3925;48.636;9.516;2023-03-20T01:55:33;2.80;;;1.53;;
7761;SDS011;3925;48.636;9.516;2023-03-20T01:58:02;1.67;;;1.23;;
7761;SDS011;3925;48.636;9.516;2023-03-20T02:00:32;1.20;;;1.20;;
7761;SDS011;3925;48.636;9.516;2023-03-20T02:03:00;1.27;;;1.20;;
7761;SDS011;3925;48.636;9.516;2023-03-20T02:05:27;1.30;;;1.20;;
7761;SDS011;3925;48.636;9.516;2023-03-20T02:07:57;1.30;;;1.20;;
7761;SDS011;3925;48.636;9.516;2023-03-20T02:10:33;0.90;;;0.90;;
7761;SDS011;3925;48.636;9.516;2023-03-20T02:13:00;3.10;;;1.90;;
7761;SDS011;3925;48.636;9.516;2023-03-20T02:15:29;1.63;;;1.30;;
7761;SDS011;3925;48.636;9.516;2023-03-20T02:17:57;1.93;;;1.20;;
7761;SDS011;3925;48.636;9.516;2023-03-20T02:20:32;1.50;;;1.20;;
7761;SDS011;3925;48.636;9.516;2023-03-20T02:26:32;1.20;;;1.10;;
7761;SDS011;3925;48.636;9.516;2023-03-20T02:32:13;1.83;;;1.73;;
7761;SDS011;3925;48.636;9.516;2023-03-20T02:35:13;1.30;;;1.20;;
7761;SDS011;3925;48.636;9.516;2023-03-20T02:38:29;1.70;;;1.60;;
7761;SDS011;3925;48.636;9.516;2023-03-20T02:41:21;1.50;;;1.40;;
7761;SDS011;3925;48.636;9.516;2023-03-20T02:43:55;1.00;;;1.00;;
7761;SDS011;3925;48.636;9.516;2023-03-20T02:46:30;1.30;;;1.17;;
7761;SDS011;3925;48.636;9.516;2023-03-20T02:49:06;1.10;;;1.10;;
7761;SDS011;3925;48.636;9.516;2023-03-20T02:51:39;1.53;;;1.43;;
7761;SDS011;3925;48.636;9.516;2023-03-20T02:54:16;1.40;;;1.30;;
7761;SDS011;3925;48.636;9.516;2023-03-20T02:56:54;1.50;;;1.40;;
7761;SDS011;3925;48.636;9.516;2023-03-20T02:59:28;1.07;;;1.07;;
7761;SDS011;3925;48.636;9.516;2023-03-20T03:02:03;3.27;;;1.10;;
7761;SDS011;3925;48.636;9.516;2023-03-20T03:04:33;3.40;;;1.70;;
7761;SDS011;3925;48.636;9.516;2023-03-20T03:07:03;1.10;;;1.10;;
7761;SDS011;3925;48.636;9.516;2023-03-20T03:09:34;1.17;;;0.87;;
7761;SDS011;3925;48.636;9.516;2023-03-20T03:12:06;1.30;;;1.20;;
7761;SDS011;3925;48.636;9.516;2023-03-20T03:14:38;1.63;;;1.20;;
7761;SDS011;3925;48.636;9.516;2023-03-20T03:17:08;1.50;;;1.40;;
7761;SDS011;3925;48.636;9.516;2023-03-20T03:19:38;1.10;;;1.10;;
7761;SDS011;3925;48.636;9.516;2023-03-20T03:22:08;1.60;;;1.00;;
7761;SDS011;3925;48.636;9.516;2023-03-20T03:24:38;1.20;;;1.10;;
7761;SDS011;3925;48.636;9.516;2023-03-20T03:27:12;1.27;;;1.10;;
7761;SDS011;3925;48.636;9.516;2023-03-20T03:29:44;1.42;;;1.08;;
7761;SDS011;3925;48.636;9.516;2023-03-20T03:32:20;1.00;;;1.00;;
7761;SDS011;3925;48.636;9.516;2023-03-20T03:34:51;1.30;;;1.20;;
7761;SDS011;3925;48.636;9.516;2023-03-20T03:37:20;1.00;;;1.00;;
7761;SDS011;3925;48.636;9.516;2023-03-20T03:40:02;1.53;;;1.27;;
7761;SDS011;3925;48.636;9.516;2023-03-20T03:42:37;1.20;;;1.20;;
7761;SDS011;3925;48.636;9.516;2023-03-20T03:45:08;1.30;;;1.20;;
7761;SDS011;3925;48.636;9.516;2023-03-20T03:47:40;1.50;;;1.40;;
7761;SDS011;3925;48.636;9.516;2023-03-20T03:50:11;1.87;;;1.10;;
7761;SDS011;3925;48.636;9.516;2023-03-20T03:52:42;1.40;;;1.30;;
7761;SDS011;3925;48.636;9.516;2023-03-20T03:55:14;1.30;;;0.93;;
7761;SDS011;3925;48.636;9.516;2023-03-20T03:57:47;1.70;;;1.60;;
7761;SDS011;3925;48.636;9.516;2023-03-20T04:00:18;2.30;;;1.40;;
7761;SDS011;3925;48.636;9.516;2023-03-20T04:02:49;2.47;;;1.50;;
7761;SDS011;3925;48.636;9.516;2023-03-20T04:05:18;1.85;;;1.75;;
7761;SDS011;3925;48.636;9.516;2023-03-20T04:07:46;1.60;;;1.50;;
7761;SDS011;3925;48.636;9.516;2023-03-20T04:10:19;1.83;;;1.70;;
7761;SDS011;3925;48.636;9.516;2023-03-20T04:12:46;2.03;;;1.93;;
7761;SDS011;3925;48.636;9.516;2023-03-20T04:15:14;1.50;;;1.40;;
7761;SDS011;3925;48.636;9.516;2023-03-20T04:17:41;1.77;;;1.40;;
7761;SDS011;3925;48.636;9.516;2023-03-20T04:20:09;2.00;;;1.42;;
7761;SDS011;3925;48.636;9.516;2023-03-20T04:22:37;3.03;;;2.00;;
7761;SDS011;3925;48.636;9.516;2023-03-20T04:25:06;1.10;;;1.10;;
7761;SDS011;3925;48.636;9.516;2023-03-20T04:27:36;1.57;;;1.47;;
7761;SDS011;3925;48.636;9.516;2023-03-20T04:30:03;1.77;;;1.67;;
7761;SDS011;3925;48.636;9.516;2023-03-20T04:32:31;2.83;;;2.10;;
7761;SDS011;3925;48.636;9.516;2023-03-20T04:34:57;1.87;;;1.77;;
7761;SDS011;3925;48.636;9.516;2023-03-20T04:37:24;1.50;;;1.40;;
7761;SDS011;3925;48.636;9.516;2023-03-20T04:39:51;2.37;;;1.50;;
7761;SDS011;3925;48.636;9.516;2023-03-20T04:42:18;1.80;;;1.70;;
7761;SDS011;3925;48.636;9.516;2023-03-20T04:44:46;1.33;;;1.27;;
7761;SDS011;3925;48.636;9.516;2023-03-20T04:47:13;1.60;;;1.50;;
7761;SDS011;3925;48.636;9.516;2023-03-20T04:49:40;1.47;;;1.37;;
7761;SDS011;3925;48.636;9.516;2023-03-20T04:52:07;1.53;;;1.40;;
7761;SDS011;3925;48.636;9.516;2023-03-20T04:54:34;1.63;;;1.53;;
7761;SDS011;3925;48.636;9.516;2023-03-20T04:57:01;2.40;;;1.33;;
7761;SDS011;3925;48.636;9.516;2023-03-20T04:59:28;1.57;;;1.47;;
7761;SDS011;3925;48.636;9.516;2023-03-20T05:01:56;2.08;;;1.80;;
7761;SDS011;3925;48.636;9.516;2023-03-20T05:04:23;1.50;;;1.40;;
7761;SDS011;3925;48.636;9.516;2023-03-20T05:06:50;1.80;;;1.70;;
7761;SDS011;3925;48.636;9.516;2023-03-20T05:09:17;2.80;;;1.83;;
7761;SDS011;3925;48.636;9.516;2023-03-20T05:11:44;1.30;;;1.20;;
7761;SDS011;3925;48.636;9.516;2023-03-20T05:14:11;1.23;;;1.13;;
7761;SDS011;3925;48.636;9.516;2023-03-20T05:16:38;1.00;;;0.80;;
7761;SDS011;3925;48.636;9.516;2023-03-20T05:19:06;1.30;;;1.20;;
7761;SDS011;3925;48.636;9.516;2023-03-20T05:21:33;1.20;;;1.10;;
7761;SDS011;3925;48.636;9.516;2023-03-20T05:24:00;0.93;;;0.93;;
7761;SDS011;3925;48.636;9.516;2023-03-20T05:26:27;1.00;;;0.87;;
7761;SDS011;3925;48.636;9.516;2023-03-20T05:28:53;1.08;;;1.08;;
7761;SDS011;3925;48.636;9.516;2023-03-20T05:31:20;0.80;;;0.80;;
7761;SDS011;3925;48.636;9.516;2023-03-20T05:33:47;0.97;;;0.80;;
7761;SDS011;3925;48.636;9.516;2023-03-20T05:36:18;0.80;;;0.80;;
7761;SDS011;3925;48.636;9.516;2023-03-20T05:38:45;1.20;;;1.10;;
7761;SDS011;3925;48.636;9.516;2023-03-20T05:41:12;3.95;;;1.55;;
7761;SDS011;3925;48.636;9.516;2023-03-20T05:43:38;1.90;;;1.03;;
7761;SDS011;3925;48.636;9.516;2023-03-20T05:46:05;0.73;;;0.73;;
7761;SDS011;3925;48.636;9.516;2023-03-20T05:48:32;0.93;;;0.83;;
7761;SDS011;3925;48.636;9.516;2023-03-20T05:50:59;1.17;;;0.80;;
7761;SDS011;3925;48.636;9.516;2023-03-20T05:53:27;0.93;;;0.70;;
7761;SDS011;3925;48.636;9.516;2023-03-20T05:55:54;0.90;;;0.90;;
7761;SDS011;3925;48.636;9.516;2023-03-20T05:58:21;1.40;;;1.30;;
7761;SDS011;3925;48.636;9.516;2023-03-20T06:00:48;1.10;;;1.10;;
7761;SDS011;3925;48.636;9.516;2023-03-20T06:03:15;1.38;;;1.27;;
7761;SDS011;3925;48.636;9.516;2023-03-20T06:05:42;0.77;;;0.77;;
7761;SDS011;3925;48.636;9.516;2023-03-20T06:08:09;1.47;;;1.17;;
7761;SDS011;3925;48.636;9.516;2023-03-20T06:10:37;0.80;;;0.80;;
7761;SDS011;3925;48.636;9.516;2023-03-20T06:13:04;1.50;;;1.30;;
7761;SDS011;3925;48.636;9.516;2023-03-20T06:15:31;1.10;;;0.90;;
7761;SDS011;3925;48.636;9.516;2023-03-20T06:17:58;0.80;;;0.80;;
7761;SDS011;3925;48.636;9.516;2023-03-20T06:20:25;0.70;;;0.70;;
7761;SDS011;3925;48.636;9.516;2023-03-20T06:22:52;2.10;;;1.00;;
7761;SDS011;3925;48.636;9.516;2023-03-20T06:25:19;2.45;;;0.77;;
7761;SDS011;3925;48.636;9.516;2023-03-20T06:27:47;0.90;;;0.60;;
7761;SDS011;3925;48.636;9.516;2023-03-20T06:30:16;1.20;;;0.90;;
7761;SDS011;3925;48.636;9.516;2023-03-20T06:32:43;1.57;;;1.00;;
7761;SDS011;3925;48.636;9.516;2023-03-20T06:35:11;1.93;;;1.27;;
7761;SDS011;3925;48.636;9.516;2023-03-20T06:37:39;0.97;;;0.87;;
7761;SDS011;3925;48.636;9.516;2023-03-20T06:40:06;3.15;;;1.30;;
7761;SDS011;3925;48.636;9.516;2023-03-20T06:42:34;1.10;;;0.90;;
7761;SDS011;3925;48.636;9.516;2023-03-20T06:45:02;1.07;;;0.90;;
7761;SDS011;3925;48.636;9.516;2023-03-20T06:47:30;0.97;;;0.90;;
7761;SDS011;3925;48.636;9.516;2023-03-20T06:49:57;0.80;;;0.80;;
7761;SDS011;3925;48.636;9.516;2023-03-20T06:52:24;2.37;;;1.03;;
7761;SDS011;3925;48.636;9.516;2023-03-20T06:54:51;0.90;;;0.90;;
7761;SDS011;3925;48.636;9.516;2023-03-20T06:57:18;0.77;;;0.77;;
7761;SDS011;3925;48.636;9.516;2023-03-20T06:59:44;1.95;;;0.68;;
7761;SDS011;3925;48.636;9.516;2023-03-20T07:02:13;0.83;;;0.83;;
7761;SDS011;3925;48.636;9.516;2023-03-20T07:04:40;2.00;;;1.00;;
7761;SDS011;3925;48.636;9.516;2023-03-20T07:07:07;0.83;;;0.77;;
7761;SDS011;3925;48.636;9.516;2023-03-20T07:09:34;0.60;;;0.60;;
7761;SDS011;3925;48.636;9.516;2023-03-20T07:12:01;2.07;;;1.10;;
7761;SDS011;3925;48.636;9.516;2023-03-20T07:14:30;1.58;;;0.70;;
7761;SDS011;3925;48.636;9.516;2023-03-20T07:16:57;0.73;;;0.73;;
7761;SDS011;3925;48.636;9.516;2023-03-20T07:19:25;1.40;;;1.03;;
7761;SDS011;3925;48.636;9.516;2023-03-20T07:21:53;2.70;;;1.00;;
7761;SDS011;3925;48.636;9.516;2023-03-20T07:24:25;0.70;;;0.63;;
7761;SDS011;3925;48.636;9.516;2023-03-20T07:26:52;1.40;;;1.00;;
7761;SDS011;3925;48.636;9.516;2023-03-20T07:29:19;0.87;;;0.87;;
7761;SDS011;3925;48.636;9.516;2023-03-20T07:31:46;0.73;;;0.70;;
7761;SDS011;3925;48.636;9.516;2023-03-20T07:34:13;0.70;;;0.60;;
7761;SDS011;3925;48.636;9.516;2023-03-20T07:36:41;0.67;;;0.63;;
7761;SDS011;3925;48.636;9.516;2023-03-20T07:39:09;0.80;;;0.70;;
7761;SDS011;3925;48.636;9.516;2023-03-20T07:41:36;0.60;;;0.53;;
7761;SDS011;3925;48.636;9.516;2023-03-20T07:44:04;0.60;;;0.53;;
7761;SDS011;3925;48.636;9.516;2023-03-20T07:46:32;0.60;;;0.60;;
7761;SDS011;3925;48.636;9.516;2023-03-20T07:48:59;0.77;;;0.77;;
7761;SDS011;3925;48.636;9.516;2023-03-20T07:51:26;0.83;;;0.67;;
7761;SDS011;3925;48.636;9.516;2023-03-20T07:53:54;0.80;;;0.50;;
7761;SDS011;3925;48.636;9.516;2023-03-20T07:56:21;0.50;;;0.50;;
7761;SDS011;3925;48.636;9.516;2023-03-20T07:58:48;2.40;;;1.00;;
7761;SDS011;3925;48.636;9.516;2023-03-20T08:01:15;0.67;;;0.60;;
7761;SDS011;3925;48.636;9.516;2023-03-20T08:03:42;0.70;;;0.70;;
7761;SDS011;3925;48.636;9.516;2023-03-20T08:06:09;0.60;;;0.60;;
7761;SDS011;3925;48.636;9.516;2023-03-20T08:08:38;0.77;;;0.77;;
7761;SDS011;3925;48.636;9.516;2023-03-20T08:11:07;0.60;;;0.60;;
7761;SDS011;3925;48.636;9.516;2023-03-20T08:13:34;0.60;;;0.60;;
7761;SDS011;3925;48.636;9.516;2023-03-20T08:16:00;0.40;;;0.40;;
7761;SDS011;3925;48.636;9.516;2023-03-20T08:18:27;0.70;;;0.43;;
7761;SDS011;3925;48.636;9.516;2023-03-20T08:20:54;1.00;;;0.70;;
7761;SDS011;3925;48.636;9.516;2023-03-20T08:23:21;1.27;;;1.00;;
7761;SDS011;3925;48.636;9.516;2023-03-20T08:25:48;0.70;;;0.57;;
7761;SDS011;3925;48.636;9.516;2023-03-20T08:28:17;0.70;;;0.60;;
7761;SDS011;3925;48.636;9.516;2023-03-20T08:30:45;1.25;;;0.77;;
7761;SDS011;3925;48.636;9.516;2023-03-20T08:33:12;0.60;;;0.60;;
7761;SDS011;3925;48.636;9.516;2023-03-20T08:35:40;1.50;;;0.50;;
7761;SDS011;3925;48.636;9.516;2023-03-20T08:38:08;0.90;;;0.80;;
7761;SDS011;3925;48.636;9.516;2023-03-20T08:40:39;3.03;;;0.60;;
7761;SDS011;3925;48.636;9.516;2023-03-20T08:43:05;1.80;;;0.70;;
7761;SDS011;3925;48.636;9.516;2023-03-20T08:45:34;0.83;;;0.63;;
7761;SDS011;3925;48.636;9.516;2023-03-20T08:48:01;3.37;;;0.80;;
7761;SDS011;3925;48.636;9.516;2023-03-20T08:50:28;2.10;;;0.50;;
7761;SDS011;3925;48.636;9.516;2023-03-20T08:52:55;1.10;;;0.80;;
7761;SDS011;3925;48.636;9.516;2023-03-20T08:55:22;0.40;;;0.40;;
7761;SDS011;3925;48.636;9.516;2023-03-20T08:57:49;0.60;;;0.60;;
7761;SDS011;3925;48.636;9.516;2023-03-20T09:00:17;1.03;;;0.50;;
7761;SDS011;3925;48.636;9.516;2023-03-20T09:02:46;0.70;;;0.60;;
7761;SDS011;3925;48.636;9.516;2023-03-20T09:05:12;0.70;;;0.50;;
7761;SDS011;3925;48.636;9.516;2023-03-20T09:07:40;0.50;;;0.50;;
7761;SDS011;3925;48.636;9.516;2023-03-20T09:10:07;0.70;;;0.63;;
7761;SDS011;3925;48.636;9.516;2023-03-20T09:12:35;1.03;;;0.47;;
7761;SDS011;3925;48.636;9.516;2023-03-20T09:15:02;0.52;;;0.52;;
7761;SDS011;3925;48.636;9.516;2023-03-20T09:17:29;0.52;;;0.52;;
7761;SDS011;3925;48.636;9.516;2023-03-20T09:19:58;0.80;;;0.60;;
7761;SDS011;3925;48.636;9.516;2023-03-20T09:22:25;2.07;;;0.40;;
7761;SDS011;3925;48.636;9.516;2023-03-20T09:24:51;0.60;;;0.50;;
7761;SDS011;3925;48.636;9.516;2023-03-20T09:27:18;0.67;;;0.53;;
7761;SDS011;3925;48.636;9.516;2023-03-20T09:29:45;0.87;;;0.60;;
7761;SDS011;3925;48.636;9.516;2023-03-20T09:32:13;0.93;;;0.93;;
7761;SDS011;3925;48.636;9.516;2023-03-20T09:34:40;0.93;;;0.50;;
7761;SDS011;3925;48.636;9.516;2023-03-20T09:37:09;0.80;;;0.30;;
7761;SDS011;3925;48.636;9.516;2023-03-20T09:39:36;0.90;;;0.63;;
7761;SDS011;3925;48.636;9.516;2023-03-20T09:42:05;0.60;;;0.50;;
7761;SDS011;3925;48.636;9.516;2023-03-20T09:44:42;1.80;;;0.60;;
7761;SDS011;3925;48.636;9.516;2023-03-20T09:47:17;1.90;;;0.40;;
7761;SDS011;3925;48.636;9.516;2023-03-20T09:49:52;3.83;;;0.60;;
7761;SDS011;3925;48.636;9.516;2023-03-20T09:52:30;1.00;;;0.47;;
7761;SDS011;3925;48.636;9.516;2023-03-20T09:55:00;0.60;;;0.60;;
7761;SDS011;3925;48.636;9.516;2023-03-20T09:57:34;0.60;;;0.60;;
7761;SDS011;3925;48.636;9.516;2023-03-20T10:00:05;1.00;;;0.50;;
7761;SDS011;3925;48.636;9.516;2023-03-20T10:02:39;0.77;;;0.77;;
7761;SDS011;3925;48.636;9.516;2023-03-20T10:05:16;0.60;;;0.53;;
7761;SDS011;3925;48.636;9.516;2023-03-20T10:07:47;0.67;;;0.50;;
7761;SDS011;3925;48.636;9.516;2023-03-20T10:10:15;0.50;;;0.50;;
7761;SDS011;3925;48.636;9.516;2023-03-20T10:12:49;6.93;;;0.87;;
7761;SDS011;3925;48.636;9.516;2023-03-20T10:15:27;0.83;;;0.60;;
7761;SDS011;3925;48.636;9.516;2023-03-20T10:18:04;2.13;;;1.90;;
7761;SDS011;3925;48.636;9.516;2023-03-20T10:20:41;0.50;;;0.50;;
7761;SDS011;3925;48.636;9.516;2023-03-20T10:23:15;0.60;;;0.60;;
7761;SDS011;3925;48.636;9.516;2023-03-20T10:25:48;1.40;;;0.70;;
7761;SDS011;3925;48.636;9.516;2023-03-20T10:28:19;0.70;;;0.40;;
7761;SDS011;3925;48.636;9.516;2023-03-20T10:30:53;1.40;;;0.70;;
7761;SDS011;3925;48.636;9.516;2023-03-20T10:33:30;0.77;;;0.77;;
7761;SDS011;3925;48.636;9.516;2023-03-20T10:36:09;0.73;;;0.70;;
7761;SDS011;3925;48.636;9.516;2023-03-20T10:38:48;1.20;;;1.10;;
7761;SDS011;3925;48.636;9.516;2023-03-20T10:41:21;1.00;;;1.00;;
7761;SDS011;3925;48.636;9.516;2023-03-20T10:43:53;0.60;;;0.60;;
7761;SDS011;3925;48.636;9.516;2023-03-20T10:46:22;0.60;;;0.40;;
7761;SDS011;3925;48.636;9.516;2023-03-20T10:48:55;1.63;;;0.70;;
7761;SDS011;3925;48.636;9.516;2023-03-20T10:51:26;1.20;;;0.57;;
7761;SDS011;3925;48.636;9.516;2023-03-20T10:54:04;1.47;;;0.47;;
7761;SDS011;3925;48.636;9.516;2023-03-20T10:56:36;0.57;;;0.50;;
7761;SDS011;3925;48.636;9.516;2023-03-20T10:59:06;0.83;;;0.50;;
7761;SDS011;3925;48.636;9.516;2023-03-20T11:01:37;0.70;;;0.70;;
7761;SDS011;3925;48.636;9.516;2023-03-20T11:04:04;1.20;;;0.53;;
7761;SDS011;3925;48.636;9.516;2023-03-20T11:06:32;0.30;;;0.30;;
7761;SDS011;3925;48.636;9.516;2023-03-20T11:09:11;0.57;;;0.50;;
7761;SDS011;3925;48.636;9.516;2023-03-20T11:11:44;0.60;;;0.60;;
7761;SDS011;3925;48.636;9.516;2023-03-20T11:14:15;0.40;;;0.40;;
7761;SDS011;3925;48.636;9.516;2023-03-20T11:16:45;0.93;;;0.60;;
7761;SDS011;3925;48.636;9.516;2023-03-20T11:19:13;0.30;;;0.30;;
7761;SDS011;3925;48.636;9.516;2023-03-20T11:21:44;0.83;;;0.60;;
7761;SDS011;3925;48.636;9.516;2023-03-20T11:24:23;0.50;;;0.50;;
7761;SDS011;3925;48.636;9.516;2023-03-20T11:26:52;0.70;;;0.70;;
7761;SDS011;3925;48.636;9.516;2023-03-20T11:29:29;0.60;;;0.60;;
7761;SDS011;3925;48.636;9.516;2023-03-20T11:32:02;1.10;;;0.60;;
7761;SDS011;3925;48.636;9.516;2023-03-20T11:34:32;1.30;;;0.53;;
7761;SDS011;3925;48.636;9.516;2023-03-20T11:37:05;0.63;;;0.53;;
7761;SDS011;3925;48.636;9.516;2023-03-20T11:39:53;2.50;;;0.83;;
7761;SDS011;3925;48.636;9.516;2023-03-20T11:42:24;0.63;;;0.60;;
7761;SDS011;3925;48.636;9.516;2023-03-20T11:44:56;0.70;;;0.70;;
7761;SDS011;3925;48.636;9.516;2023-03-20T11:47:27;0.93;;;0.80;;
7761;SDS011;3925;48.636;9.516;2023-03-20T11:49:58;1.23;;;1.00;;
7761;SDS011;3925;48.636;9.516;2023-03-20T11:52:28;0.83;;;0.50;;
7761;SDS011;3925;48.636;9.516;2023-03-20T11:54:59;0.70;;;0.60;;
7761;SDS011;3925;48.636;9.516;2023-03-20T11:57:31;0.80;;;0.80;;
7761;SDS011;3925;48.636;9.516;2023-03-20T12:00:00;0.60;;;0.50;;
7761;SDS011;3925;48.636;9.516;2023-03-20T12:02:30;0.70;;;0.70;;
7761;SDS011;3925;48.636;9.516;2023-03-20T12:04:58;0.57;;;0.57;;
7761;SDS011;3925;48.636;9.516;2023-03-20T12:07:26;1.00;;;0.90;;
7761;SDS011;3925;48.636;9.516;2023-03-20T12:09:56;2.95;;;1.15;;
7761;SDS011;3925;48.636;9.516;2023-03-20T12:12:31;1.07;;;0.97;;
7761;SDS011;3925;48.636;9.516;2023-03-20T12:15:03;4.70;;;0.90;;
7761;SDS011;3925;48.636;9.516;2023-03-20T12:17:34;3.77;;;0.90;;
7761;SDS011;3925;48.636;9.516;2023-03-20T12:20:11;2.70;;;1.00;;
7761;SDS011;3925;48.636;9.516;2023-03-20T12:22:48;1.20;;;1.10;;
7761;SDS011;3925;48.636;9.516;2023-03-20T12:25:22;2.00;;;1.30;;
7761;SDS011;3925;48.636;9.516;2023-03-20T12:27:53;1.17;;;0.70;;
7761;SDS011;3925;48.636;9.516;2023-03-20T12:30:28;1.30;;;0.90;;
7761;SDS011;3925;48.636;9.516;2023-03-20T12:33:06;0.80;;;0.80;;
7761;SDS011;3925;48.636;9.516;2023-03-20T12:35:38;0.80;;;0.80;;
7761;SDS011;3925;48.636;9.516;2023-03-20T12:38:13;0.70;;;0.70;;
7761;SDS011;3925;48.636;9.516;2023-03-20T12:40:56;0.60;;;0.60;;
7761;SDS011;3925;48.636;9.516;2023-03-20T12:43:31;0.70;;;0.70;;
7761;SDS011;3925;48.636;9.516;2023-03-20T12:46:04;0.90;;;0.90;;
7761;SDS011;3925;48.636;9.516;2023-03-20T12:48:45;1.47;;;1.10;;
7761;SDS011;3925;48.636;9.516;2023-03-20T12:51:22;0.83;;;0.83;;
7761;SDS011;3925;48.636;9.516;2023-03-20T12:54:04;0.60;;;0.60;;
7761;SDS011;3925;48.636;9.516;2023-03-20T12:56:46;1.97;;;0.70;;
7761;SDS011;3925;48.636;9.516;2023-03-20T12:59:31;0.77;;;0.77;;
7761;SDS011;3925;48.636;9.516;2023-03-20T13:02:11;0.73;;;0.73;;
7761;SDS011;3925;48.636;9.516;2023-03-20T13:04:56;0.73;;;0.73;;
7761;SDS011;3925;48.636;9.516;2023-03-20T13:07:38;0.87;;;0.87;;
7761;SDS011;3925;48.636;9.516;2023-03-20T13:10:18;0.80;;;0.80;;
7761;SDS011;3925;48.636;9.516;2023-03-20T13:12:50;0.67;;;0.67;;
7761;SDS011;3925;48.636;9.516;2023-03-20T13:15:30;1.03;;;0.77;;
7761;SDS011;3925;48.636;9.516;2023-03-20T13:18:15;0.80;;;0.80;;
7761;SDS011;3925;48.636;9.516;2023-03-20T13:20:50;0.90;;;0.90;;
7761;SDS011;3925;48.636;9.516;2023-03-20T13:23:20;0.50;;;0.50;;
7761;SDS011;3925;48.636;9.516;2023-03-20T13:25:54;0.50;;;0.50;;
7761;SDS011;3925;48.636;9.516;2023-03-20T13:28:32;0.83;;;0.83;;
7761;SDS011;3925;48.636;9.516;2023-03-20T13:31:05;0.50;;;0.50;;
7761;SDS011;3925;48.636;9.516;2023-03-20T13:33:46;0.83;;;0.60;;
7761;SDS011;3925;48.636;9.516;2023-03-20T13:36:21;0.60;;;0.60;;
7761;SDS011;3925;48.636;9.516;2023-03-20T13:38:56;0.70;;;0.70;;
7761;SDS011;3925;48.636;9.516;2023-03-20T13:41:26;0.90;;;0.90;;
7761;SDS011;3925;48.636;9.516;2023-03-20T13:43:56;0.70;;;0.70;;
7761;SDS011;3925;48.636;9.516;2023-03-20T13:46:27;1.30;;;0.77;;
7761;SDS011;3925;48.636;9.516;2023-03-20T13:49:01;1.00;;;0.90;;
7761;SDS011;3925;48.636;9.516;2023-03-20T13:51:35;0.53;;;0.50;;
7761;SDS011;3925;48.636;9.516;2023-03-20T13:54:17;1.27;;;0.90;;
7761;SDS011;3925;48.636;9.516;2023-03-20T13:56:56;1.63;;;0.87;;
7761;SDS011;3925;48.636;9.516;2023-03-20T13:59:41;0.87;;;0.87;;
7761;SDS011;3925;48.636;9.516;2023-03-20T14:02:33;0.90;;;0.70;;
7761;SDS011;3925;48.636;9.516;2023-03-20T14:05:13;0.70;;;0.70;;
7761;SDS011;3925;48.636;9.516;2023-03-20T14:07:43;1.07;;;0.80;;
7761;SDS011;3925;48.636;9.516;2023-03-20T14:13:03;0.85;;;0.85;;
7761;SDS011;3925;48.636;9.516;2023-03-20T14:15:37;1.27;;;1.10;;
7761;SDS011;3925;48.636;9.516;2023-03-20T14:18:12;0.90;;;0.90;;
7761;SDS011;3925;48.636;9.516;2023-03-20T14:20:41;1.60;;;1.47;;
7761;SDS011;3925;48.636;9.516;2023-03-20T14:23:16;1.47;;;1.13;;
7761;SDS011;3925;48.636;9.516;2023-03-20T14:25:45;1.33;;;1.23;;
7761;SDS011;3925;48.636;9.516;2023-03-20T14:28:23;1.75;;;1.13;;
7761;SDS011;3925;48.636;9.516;2023-03-20T14:33:52;1.10;;;0.93;;
7761;SDS011;3925;48.636;9.516;2023-03-20T14:36:45;1.00;;;1.00;;
7761;SDS011;3925;48.636;9.516;2023-03-20T14:39:18;3.50;;;1.13;;
7761;SDS011;3925;48.636;9.516;2023-03-20T14:41:57;1.80;;;1.00;;
7761;SDS011;3925;48.636;9.516;2023-03-20T14:44:35;3.50;;;1.20;;
7761;SDS011;3925;48.636;9.516;2023-03-20T14:47:19;1.60;;;1.13;;
7761;SDS011;3925;48.636;9.516;2023-03-20T14:49:51;2.20;;;1.20;;
7761;SDS011;3925;48.636;9.516;2023-03-20T14:52:36;0.90;;;0.90;;
7761;SDS011;3925;48.636;9.516;2023-03-20T14:58:01;0.80;;;0.80;;
7761;SDS011;3925;48.636;9.516;2023-03-20T15:00:32;1.13;;;0.90;;
7761;SDS011;3925;48.636;9.516;2023-03-20T15:03:12;1.20;;;1.10;;
7761;SDS011;3925;48.636;9.516;2023-03-20T15:05:41;1.93;;;1.80;;
7761;SDS011;3925;48.636;9.516;2023-03-20T15:08:10;1.33;;;1.07;;
7761;SDS011;3925;48.636;9.516;2023-03-20T15:10:45;1.67;;;1.20;;
7761;SDS011;3925;48.636;9.516;2023-03-20T15:13:15;1.20;;;1.10;;
7761;SDS011;3925;48.636;9.516;2023-03-20T15:15:50;0.90;;;0.90;;
7761;SDS011;3925;48.636;9.516;2023-03-20T15:18:20;2.40;;;0.80;;
7761;SDS011;3925;48.636;9.516;2023-03-20T15:20:48;1.30;;;1.20;;
7761;SDS011;3925;48.636;9.516;2023-03-20T15:23:15;1.50;;;1.10;;
7761;SDS011;3925;48.636;9.516;2023-03-20T15:25:42;1.07;;;0.90;;
7761;SDS011;3925;48.636;9.516;2023-03-20T15:28:11;1.10;;;1.00;;
7761;SDS011;3925;48.636;9.516;2023-03-20T15:30:40;1.33;;;1.23;;
7761;SDS011;3925;48.636;9.516;2023-03-20T15:33:09;1.53;;;1.13;;
7761;SDS011;3925;48.636;9.516;2023-03-20T15:35:43;1.70;;;0.90;;
7761;SDS011;3925;48.636;9.516;2023-03-20T15:38:10;0.80;;;0.80;;
7761;SDS011;3925;48.636;9.516;2023-03-20T15:40:39;0.73;;;0.73;;
7761;SDS011;3925;48.636;9.516;2023-03-20T15:43:10;0.97;;;0.93;;
7761;SDS011;3925;48.636;9.516;2023-03-20T15:45:39;2.40;;;0.80;;
7761;SDS011;3925;48.636;9.516;2023-03-20T15:48:08;0.80;;;0.80;;
7761;SDS011;3925;48.636;9.516;2023-03-20T15:50:39;4.67;;;1.23;;
7761;SDS011;3925;48.636;9.516;2023-03-20T15:53:13;0.90;;;0.90;;
7761;SDS011;3925;48.636;9.516;2023-03-20T15:55:45;1.20;;;1.10;;
7761;SDS011;3925;48.636;9.516;2023-03-20T15:58:14;0.80;;;0.80;;